Time;durP1;ratioP1;P1;durP2;ratioP2;P2;SDS_P1;SDS_P2;PMS_P1;PMS_P2;Temp;Humidity;BMP_temperature;BMP_pressure;BME280_temperature;BME280_humidity;BME280_pressure;Samples;Min_cycle;Max_cycle;Signal;HPM_P1;HPM_P2
2023/03/18 00:01:11;;;;;;;11.23;5.82;;;11.50;99.90;;;;;;5017451;28;20022;-65
2023/03/18 00:03:37;;;;;;;16.02;5.72;;;11.40;99.90;;;;;;5017562;28;20026;-65
2023/03/18 00:06:18;;;;;;;14.90;5.85;;;11.40;99.90;;;;;;5017375;28;20033;-65
2023/03/18 00:08:46;;;;;;;11.70;6.00;;;11.40;99.90;;;;;;5016415;28;20026;-65
2023/03/18 00:11:13;;;;;;;11.20;5.03;;;11.40;99.90;;;;;;5040043;22;20033;-67
2023/03/18 00:13:40;;;;;;;13.85;5.53;;;11.40;99.90;;;;;;5017206;28;20034;-67
2023/03/18 00:16:07;;;;;;;12.10;5.22;;;11.40;99.90;;;;;;5017162;28;20018;-67
2023/03/18 00:18:33;;;;;;;12.93;5.47;;;11.40;99.90;;;;;;5017478;28;20022;-67
2023/03/18 00:21:00;;;;;;;10.93;4.75;;;11.30;99.90;;;;;;5017346;28;20037;-67
2023/03/18 00:23:26;;;;;;;12.15;6.65;;;11.10;99.90;;;;;;5017015;28;20026;-67
2023/03/18 00:25:55;;;;;;;10.55;5.28;;;10.90;99.90;;;;;;5016251;28;20036;-68
2023/03/18 00:28:22;;;;;;;12.77;4.63;;;10.70;99.90;;;;;;5017002;28;20104;-68
2023/03/18 00:30:50;;;;;;;11.40;4.82;;;10.60;99.90;;;;;;5017283;28;20026;-68
2023/03/18 00:33:17;;;;;;;17.85;4.40;;;10.70;99.90;;;;;;5017000;28;20029;-68
2023/03/18 00:35:44;;;;;;;12.95;5.30;;;10.80;99.90;;;;;;5016188;28;20029;-68
2023/03/18 00:38:14;;;;;;;14.23;4.95;;;10.90;99.90;;;;;;5017060;28;20100;-68
2023/03/18 00:40:52;;;;;;;11.57;4.85;;;11.00;99.90;;;;;;5017144;28;20180;-68
2023/03/18 00:43:28;;;;;;;12.55;4.85;;;10.90;99.90;;;;;;5016125;28;20076;-68
2023/03/18 00:45:54;;;;;;;11.30;5.22;;;10.90;99.90;;;;;;5016967;28;20021;-68
2023/03/18 00:48:19;;;;;;;11.85;5.53;;;10.90;99.90;;;;;;5016296;28;20121;-68
2023/03/18 00:50:45;;;;;;;14.65;6.32;;;11.00;99.90;;;;;;5016089;28;20104;-68
2023/03/18 00:53:11;;;;;;;12.18;4.90;;;10.90;99.90;;;;;;5015873;28;20022;-68
2023/03/18 00:55:38;;;;;;;9.25;5.00;;;10.90;99.90;;;;;;5016348;28;20064;-68
2023/03/18 00:58:03;;;;;;;12.93;5.20;;;10.80;99.90;;;;;;5016743;28;20080;-68
2023/03/18 01:00:29;;;;;;;9.88;5.50;;;10.70;99.90;;;;;;5016622;28;20033;-68
2023/03/18 01:02:55;;;;;;;9.57;5.07;;;10.60;99.90;;;;;;5016308;28;20117;-68
2023/03/18 01:05:21;;;;;;;12.80;5.45;;;10.60;99.90;;;;;;5016124;28;20038;-68
2023/03/18 01:07:47;;;;;;;13.75;5.38;;;10.60;99.90;;;;;;5016022;28;20036;-68
2023/03/18 01:10:14;;;;;;;10.85;5.38;;;10.60;99.90;;;;;;5015791;28;20022;-68
2023/03/18 01:12:41;;;;;;;11.40;5.65;;;10.50;99.90;;;;;;5016071;28;20026;-68
2023/03/18 01:15:11;;;;;;;10.93;5.90;;;10.50;99.90;;;;;;5017803;28;20117;-68
2023/03/18 01:17:37;;;;;;;13.63;6.18;;;10.50;99.90;;;;;;5020345;28;20026;-68
2023/03/18 01:20:03;;;;;;;15.02;5.45;;;10.30;99.90;;;;;;5020074;28;20033;-68
2023/03/18 01:22:29;;;;;;;11.38;5.50;;;10.00;99.90;;;;;;5019207;28;20054;-68
2023/03/18 01:24:56;;;;;;;11.60;5.40;;;9.80;99.90;;;;;;5019168;28;20026;-68
2023/03/18 01:27:21;;;;;;;19.40;5.30;;;9.80;99.90;;;;;;5019029;28;20033;-68
2023/03/18 01:29:47;;;;;;;15.80;5.15;;;9.70;99.90;;;;;;5020251;28;20029;-68
2023/03/18 01:32:13;;;;;;;19.77;4.93;;;9.80;99.90;;;;;;5018997;28;20018;-68
2023/03/18 01:34:40;;;;;;;10.63;5.53;;;9.70;99.90;;;;;;5019604;28;20148;-68
2023/03/18 01:37:06;;;;;;;14.70;5.85;;;9.50;99.90;;;;;;5018829;28;20050;-68
2023/03/18 01:39:33;;;;;;;12.38;5.95;;;9.40;99.90;;;;;;5019809;28;20022;-68
2023/03/18 01:41:59;;;;;;;16.98;6.50;;;9.30;99.90;;;;;;5019931;28;20033;-68
2023/03/18 01:44:24;;;;;;;17.77;6.55;;;9.50;99.90;;;;;;5019147;28;20037;-68
2023/03/18 01:46:51;;;;;;;33.38;6.25;;;9.60;99.90;;;;;;5019644;28;20026;-68
2023/03/18 01:49:29;;;;;;;12.73;6.47;;;9.70;99.90;;;;;;5019999;28;20042;-68
2023/03/18 01:52:05;;;;;;;9.30;5.22;;;9.80;99.90;;;;;;5018729;28;20026;-68
2023/03/18 01:54:36;;;;;;;16.75;5.75;;;9.70;99.90;;;;;;5019802;28;20037;-68
2023/03/18 01:57:02;;;;;;;10.40;6.17;;;9.50;99.90;;;;;;5019513;28;20113;-68
2023/03/18 01:59:31;;;;;;;13.93;5.93;;;9.60;99.90;;;;;;5018655;28;20268;-68
2023/03/18 02:02:02;;;;;;;14.60;6.38;;;9.60;99.90;;;;;;5019455;28;20032;-68
2023/03/18 02:04:32;;;;;;;11.50;5.95;;;9.60;99.90;;;;;;5019499;28;20030;-68
2023/03/18 02:06:58;;;;;;;13.57;6.03;;;9.80;99.90;;;;;;5018373;28;20037;-68
2023/03/18 02:09:24;;;;;;;11.30;6.05;;;9.80;99.90;;;;;;5018349;28;20060;-68
2023/03/18 02:11:51;;;;;;;11.68;5.95;;;9.90;99.90;;;;;;5018714;28;20034;-68
2023/03/18 02:14:22;;;;;;;18.48;6.57;;;9.80;99.90;;;;;;5019132;28;20029;-68
2023/03/18 02:17:02;;;;;;;13.52;6.18;;;9.60;99.90;;;;;;5018475;28;20033;-68
2023/03/18 02:19:36;;;;;;;13.23;6.28;;;9.40;99.90;;;;;;5018822;28;20021;-68
2023/03/18 02:22:32;;;;;;;10.88;6.30;;;9.50;99.90;;;;;;5018879;28;20071;-68
2023/03/18 02:25:09;;;;;;;10.35;5.50;;;9.40;99.90;;;;;;5019048;28;20037;-68
2023/03/18 02:27:40;;;;;;;13.38;6.35;;;9.50;99.90;;;;;;5018017;28;20036;-68
2023/03/18 02:30:12;;;;;;;12.70;6.10;;;9.70;99.90;;;;;;5018878;28;20029;-68
2023/03/18 02:32:40;;;;;;;10.27;6.22;;;9.80;99.90;;;;;;5017929;28;20113;-68
2023/03/18 02:35:07;;;;;;;11.80;5.97;;;9.90;99.90;;;;;;5018049;28;20022;-68
2023/03/18 02:37:33;;;;;;;10.90;6.18;;;9.80;99.90;;;;;;5017797;28;20164;-68
2023/03/18 02:40:17;;;;;;;8.45;5.30;;;9.80;99.90;;;;;;5018126;28;20068;-68
2023/03/18 02:42:44;;;;;;;12.18;5.32;;;9.80;99.90;;;;;;5018578;28;20029;-68
2023/03/18 02:45:32;;;;;;;13.27;5.70;;;10.00;99.90;;;;;;5017941;28;20033;-68
2023/03/18 02:47:58;;;;;;;9.32;5.88;;;10.00;99.90;;;;;;5017617;28;20048;-68
2023/03/18 02:50:24;;;;;;;12.52;5.65;;;9.90;99.90;;;;;;5017558;28;20100;-68
2023/03/18 02:52:50;;;;;;;11.35;5.32;;;9.90;99.90;;;;;;5017746;28;20068;-68
2023/03/18 02:55:15;;;;;;;11.88;5.65;;;10.00;99.90;;;;;;5017589;28;20026;-68
2023/03/18 02:57:41;;;;;;;10.20;5.68;;;9.90;99.90;;;;;;5018586;28;20105;-68
2023/03/18 03:00:08;;;;;;;10.32;4.93;;;9.90;99.90;;;;;;5017632;28;20113;-68
2023/03/18 03:02:34;;;;;;;11.55;5.60;;;9.90;99.90;;;;;;5018239;28;20029;-67
2023/03/18 03:04:59;;;;;;;10.73;6.05;;;9.80;99.90;;;;;;5018191;28;20030;-67
2023/03/18 03:07:26;;;;;;;10.93;5.53;;;9.80;99.90;;;;;;5017676;28;20033;-67
2023/03/18 03:09:52;;;;;;;9.82;5.18;;;9.80;99.90;;;;;;5017188;28;20026;-67
2023/03/18 03:12:18;;;;;;;9.55;5.15;;;9.80;99.90;;;;;;5017413;28;20030;-68
2023/03/18 03:14:43;;;;;;;12.57;6.35;;;9.80;99.90;;;;;;5017768;28;20026;-68
2023/03/18 03:17:09;;;;;;;12.55;6.78;;;9.70;99.90;;;;;;5018042;28;20181;-68
2023/03/18 03:19:35;;;;;;;13.90;6.57;;;9.70;99.90;;;;;;5017151;28;20030;-68
2023/03/18 03:22:01;;;;;;;13.57;7.18;;;9.60;99.90;;;;;;5017317;28;20035;-67
2023/03/18 03:24:26;;;;;;;14.05;6.40;;;9.60;99.90;;;;;;5017573;28;20048;-67
2023/03/18 03:26:52;;;;;;;13.70;6.72;;;9.60;99.90;;;;;;5017329;28;20026;-67
2023/03/18 03:29:19;;;;;;;12.63;7.15;;;9.50;99.90;;;;;;5016898;28;20030;-67
2023/03/18 03:31:45;;;;;;;13.90;6.80;;;9.50;99.90;;;;;;5017770;28;20068;-67
2023/03/18 03:34:10;;;;;;;15.68;7.45;;;9.60;99.90;;;;;;5018035;28;20085;-67
2023/03/18 03:36:36;;;;;;;12.50;7.22;;;9.70;99.90;;;;;;5016837;28;20060;-67
2023/03/18 03:39:02;;;;;;;15.90;7.85;;;9.80;99.90;;;;;;5017262;28;20032;-67
2023/03/18 03:41:28;;;;;;;17.67;8.35;;;9.80;99.90;;;;;;5016849;28;20021;-67
2023/03/18 03:43:54;;;;;;;12.23;7.25;;;9.80;99.90;;;;;;5016862;28;20089;-67
2023/03/18 03:46:20;;;;;;;14.15;7.53;;;9.80;99.90;;;;;;5016619;28;20026;-68
2023/03/18 03:48:46;;;;;;;15.80;7.10;;;9.90;99.90;;;;;;5017366;28;20025;-68
2023/03/18 03:51:13;;;;;;;15.90;7.78;;;10.00;99.90;;;;;;5016639;28;20029;-68
2023/03/18 03:53:39;;;;;;;17.50;8.02;;;9.90;99.90;;;;;;5017646;28;20022;-67
2023/03/18 03:56:07;;;;;;;13.85;7.80;;;9.90;99.90;;;;;;5017787;28;20025;-67
2023/03/18 03:58:34;;;;;;;15.63;8.05;;;9.90;99.90;;;;;;5016424;28;20065;-67
2023/03/18 04:00:59;;;;;;;15.05;7.43;;;10.00;99.90;;;;;;5016357;28;20033;-67
2023/03/18 04:03:25;;;;;;;12.57;7.65;;;10.00;99.90;;;;;;5016581;28;20026;-67
2023/03/18 04:05:51;;;;;;;15.57;7.55;;;10.10;99.90;;;;;;5016946;28;20032;-67
2023/03/18 04:08:16;;;;;;;16.27;8.48;;;10.10;99.90;;;;;;5016887;28;20124;-67
2023/03/18 04:10:42;;;;;;;18.90;8.10;;;10.10;99.90;;;;;;5016357;28;20109;-67
2023/03/18 04:13:09;;;;;;;18.00;8.73;;;10.00;99.90;;;;;;5016204;28;20030;-67
2023/03/18 04:15:34;;;;;;;12.38;7.28;;;9.70;99.90;;;;;;5017287;28;20026;-67
2023/03/18 04:18:05;;;;;;;20.40;8.23;;;9.70;99.90;;;;;;5017227;28;20030;-67
2023/03/18 04:20:33;;;;;;;12.50;7.32;;;9.80;99.90;;;;;;5017271;28;20021;-67
2023/03/18 04:22:58;;;;;;;14.18;7.57;;;9.80;99.90;;;;;;5016544;28;20022;-67
2023/03/18 04:25:24;;;;;;;11.40;7.65;;;9.80;99.90;;;;;;5017535;28;20033;-67
2023/03/18 04:27:51;;;;;;;14.77;7.78;;;9.80;99.90;;;;;;5016339;28;20041;-67
2023/03/18 04:30:19;;;;;;;15.48;8.43;;;9.80;99.90;;;;;;5017078;28;20029;-67
2023/03/18 04:32:45;;;;;;;15.85;8.23;;;9.70;99.90;;;;;;5016124;28;20026;-67
2023/03/18 04:35:11;;;;;;;15.75;7.18;;;9.70;99.90;;;;;;5016218;28;20021;-67
2023/03/18 04:37:37;;;;;;;16.08;8.00;;;9.60;99.90;;;;;;5017122;28;20036;-67
2023/03/18 04:40:04;;;;;;;11.95;7.63;;;9.50;99.90;;;;;;5016308;28;20021;-67
2023/03/18 04:42:30;;;;;;;11.40;7.03;;;9.50;99.90;;;;;;5017510;28;20036;-68
2023/03/18 04:44:56;;;;;;;19.40;7.72;;;9.50;99.90;;;;;;5017165;28;20093;-68
2023/03/18 04:47:22;;;;;;;14.27;7.75;;;9.60;99.90;;;;;;5017449;28;20022;-68
2023/03/18 04:49:48;;;;;;;15.20;7.35;;;9.70;99.90;;;;;;5017238;28;20018;-68
2023/03/18 04:52:13;;;;;;;14.38;6.70;;;9.70;99.90;;;;;;5019949;28;20026;-67
2023/03/18 04:54:39;;;;;;;12.93;7.18;;;9.70;99.90;;;;;;5020942;28;20030;-67
2023/03/18 04:57:06;;;;;;;13.20;7.38;;;9.70;99.90;;;;;;5020020;28;20021;-67
2023/03/18 04:59:32;;;;;;;13.48;8.15;;;9.70;99.90;;;;;;5019891;28;20026;-67
2023/03/18 05:01:58;;;;;;;16.10;8.32;;;9.70;99.90;;;;;;5019654;28;20105;-68
2023/03/18 05:04:24;;;;;;;18.27;8.65;;;9.60;99.90;;;;;;5020071;28;20068;-68
2023/03/18 05:06:50;;;;;;;15.15;7.68;;;9.60;99.90;;;;;;5020402;28;20028;-68
2023/03/18 05:09:18;;;;;;;14.38;7.72;;;9.60;99.90;;;;;;5019370;28;20025;-68
2023/03/18 05:11:44;;;;;;;13.10;7.22;;;9.60;99.90;;;;;;5020323;28;20026;-67
2023/03/18 05:14:09;;;;;;;15.75;6.93;;;9.60;99.90;;;;;;5019947;28;20097;-67
2023/03/18 05:16:35;;;;;;;16.90;7.28;;;9.60;99.90;;;;;;5020361;28;20026;-67
2023/03/18 05:19:01;;;;;;;12.68;7.30;;;9.60;99.90;;;;;;5020255;28;20021;-67
2023/03/18 05:21:27;;;;;;;24.42;8.18;;;9.60;99.90;;;;;;5019311;28;20033;-67
2023/03/18 05:23:52;;;;;;;15.63;8.70;;;9.60;99.90;;;;;;5020215;28;20030;-67
2023/03/18 05:26:18;;;;;;;15.40;8.27;;;9.60;99.90;;;;;;5019222;28;20021;-67
2023/03/18 05:28:44;;;;;;;15.23;7.95;;;9.60;99.90;;;;;;5020510;28;20036;-67
2023/03/18 05:31:09;;;;;;;16.40;8.07;;;9.50;99.90;;;;;;5019608;28;20112;-67
2023/03/18 05:33:35;;;;;;;16.23;7.70;;;9.50;99.90;;;;;;5019337;28;20072;-68
2023/03/18 05:36:01;;;;;;;19.83;8.77;;;9.50;99.90;;;;;;5020232;28;20018;-68
2023/03/18 05:38:26;;;;;;;14.38;8.70;;;9.40;99.90;;;;;;5019694;28;20095;-68
2023/03/18 05:40:52;;;;;;;16.33;8.10;;;9.30;99.90;;;;;;5019235;28;20030;-68
2023/03/18 05:43:18;;;;;;;15.07;7.80;;;9.10;99.90;;;;;;5019225;28;20033;-68
2023/03/18 05:45:44;;;;;;;17.27;9.05;;;9.00;99.90;;;;;;5019916;28;20033;-67
2023/03/18 05:48:10;;;;;;;16.42;8.10;;;9.10;99.90;;;;;;5019578;28;20026;-67
2023/03/18 05:50:39;;;;;;;17.42;7.95;;;9.20;99.90;;;;;;5019029;28;20021;-68
2023/03/18 05:53:05;;;;;;;14.27;8.38;;;9.30;99.90;;;;;;5018868;28;20025;-68
2023/03/18 05:55:32;;;;;;;19.60;8.65;;;9.40;99.90;;;;;;5019120;28;20072;-68
2023/03/18 05:57:59;;;;;;;14.15;8.73;;;9.50;99.90;;;;;;5018814;28;20113;-68
2023/03/18 06:00:27;;;;;;;15.02;8.77;;;9.50;99.90;;;;;;5019221;28;20038;-67
2023/03/18 06:02:53;;;;;;;19.55;8.50;;;9.50;99.90;;;;;;5019257;28;20045;-67
2023/03/18 06:05:19;;;;;;;16.52;7.53;;;9.40;99.90;;;;;;5018820;28;20030;-68
2023/03/18 06:07:45;;;;;;;20.98;9.43;;;9.40;99.90;;;;;;5018752;28;20055;-68
2023/03/18 06:10:11;;;;;;;15.63;8.95;;;9.40;99.90;;;;;;5018310;28;20104;-68
2023/03/18 06:12:37;;;;;;;16.30;8.38;;;9.50;99.90;;;;;;5042299;22;20038;-63
2023/03/18 06:15:06;;;;;;;17.85;8.10;;;9.50;99.90;;;;;;5018276;28;20032;-63
2023/03/18 06:17:32;;;;;;;14.20;8.52;;;9.40;99.90;;;;;;5019047;28;20022;-63
2023/03/18 06:19:58;;;;;;;13.73;8.30;;;9.40;99.90;;;;;;5018994;28;20025;-63
2023/03/18 06:22:24;;;;;;;14.57;8.13;;;9.30;99.90;;;;;;5018479;28;20112;-63
2023/03/18 06:24:50;;;;;;;19.20;8.65;;;9.20;99.90;;;;;;5018392;28;20029;-63
2023/03/18 06:27:15;;;;;;;13.30;7.95;;;9.20;99.90;;;;;;5017945;28;20022;-63
2023/03/18 06:29:41;;;;;;;19.10;8.10;;;9.20;99.90;;;;;;5018964;28;20026;-63
2023/03/18 06:32:07;;;;;;;14.75;7.97;;;9.20;99.90;;;;;;5017952;28;20036;-63
2023/03/18 06:34:34;;;;;;;19.05;8.60;;;9.20;99.90;;;;;;5017963;28;20033;-63
2023/03/18 06:36:59;;;;;;;13.70;8.23;;;9.20;99.90;;;;;;5017826;28;20045;-63
2023/03/18 06:39:27;;;;;;;15.20;7.97;;;9.20;99.90;;;;;;5017933;28;20021;-63
2023/03/18 06:41:53;;;;;;;18.88;8.13;;;9.30;99.90;;;;;;5017980;28;20025;-63
2023/03/18 06:44:20;;;;;;;11.85;7.43;;;9.40;99.90;;;;;;5017707;28;20112;-63
2023/03/18 06:46:45;;;;;;;14.02;8.20;;;9.40;99.90;;;;;;5019288;28;20187;-69
2023/03/18 06:49:11;;;;;;;12.88;8.02;;;9.40;99.90;;;;;;5018532;28;20095;-69
2023/03/18 06:51:37;;;;;;;13.48;8.13;;;9.40;99.90;;;;;;5017447;28;20022;-69
2023/03/18 06:54:04;;;;;;;15.05;7.93;;;9.50;99.90;;;;;;5017641;28;20117;-69
2023/03/18 06:56:32;;;;;;;19.95;7.95;;;9.60;99.90;;;;;;5017861;28;20025;-69
2023/03/18 06:58:58;;;;;;;16.38;7.68;;;9.70;99.90;;;;;;5017325;28;20026;-70
2023/03/18 07:01:24;;;;;;;13.30;7.78;;;9.80;99.90;;;;;;5017329;28;20080;-69
2023/03/18 07:03:50;;;;;;;11.95;6.97;;;9.80;99.90;;;;;;5018539;28;20084;-63
2023/03/18 07:06:17;;;;;;;14.57;8.20;;;9.80;99.90;;;;;;5017421;28;20030;-63
2023/03/18 07:08:43;;;;;;;13.27;7.22;;;9.90;99.90;;;;;;5018061;28;20029;-63
2023/03/18 07:11:09;;;;;;;14.57;7.90;;;9.90;99.90;;;;;;5017330;28;20033;-64
2023/03/18 07:13:35;;;;;;;22.63;8.07;;;10.00;99.90;;;;;;5016430;28;20025;-63
2023/03/18 07:16:00;;;;;;;14.43;8.50;;;10.10;99.90;;;;;;5017224;28;20108;-63
2023/03/18 07:18:26;;;;;;;15.93;7.80;;;10.10;99.90;;;;;;5018130;28;20095;-64
2023/03/18 07:20:52;;;;;;;21.08;7.30;;;10.10;99.90;;;;;;5018033;28;20029;-64
2023/03/18 07:23:18;;;;;;;17.48;7.15;;;10.20;99.90;;;;;;5017352;28;20025;-63
2023/03/18 07:25:44;;;;;;;16.25;6.60;;;10.30;99.90;;;;;;5017883;28;20087;-63
2023/03/18 07:28:09;;;;;;;13.75;7.30;;;10.30;99.90;;;;;;5017955;28;20064;-63
2023/03/18 07:30:35;;;;;;;15.20;7.20;;;10.40;99.90;;;;;;5017973;28;20028;-63
2023/03/18 07:33:01;;;;;;;11.23;6.70;;;10.50;99.90;;;;;;5017273;28;20018;-63
2023/03/18 07:35:27;;;;;;;13.27;6.78;;;10.60;99.90;;;;;;5016951;28;20265;-63
2023/03/18 07:37:52;;;;;;;16.85;6.80;;;10.70;99.90;;;;;;5017635;28;20034;-63
2023/03/18 07:40:18;;;;;;;13.10;8.00;;;10.80;99.90;;;;;;5017088;28;20026;-69
2023/03/18 07:42:44;;;;;;;11.82;6.65;;;10.90;99.90;;;;;;5017449;28;20026;-70
2023/03/18 07:45:10;;;;;;;13.38;7.85;;;10.90;99.90;;;;;;5017910;28;20105;-69
2023/03/18 07:47:36;;;;;;;11.82;7.45;;;11.00;99.90;;;;;;5016979;28;20026;-70
2023/03/18 07:50:03;;;;;;;16.48;7.13;;;11.20;99.90;;;;;;5017504;28;20021;-70
2023/03/18 07:52:28;;;;;;;13.32;6.82;;;11.20;99.90;;;;;;5016555;28;20057;-70
2023/03/18 07:54:54;;;;;;;11.35;6.90;;;11.30;99.90;;;;;;5016695;28;20073;-70
2023/03/18 07:57:19;;;;;;;10.77;6.50;;;11.30;99.90;;;;;;5016505;28;20026;-70
2023/03/18 07:59:46;;;;;;;16.58;6.32;;;11.40;99.90;;;;;;5017658;28;20033;-70
2023/03/18 08:02:13;;;;;;;10.70;5.95;;;11.50;99.90;;;;;;5016505;28;20021;-69
2023/03/18 08:04:39;;;;;;;12.43;6.53;;;11.70;99.90;;;;;;5017359;28;20025;-70
2023/03/18 08:07:05;;;;;;;11.82;6.70;;;11.70;99.90;;;;;;5016757;28;20021;-70
2023/03/18 08:09:31;;;;;;;12.85;5.50;;;11.70;99.90;;;;;;5017372;28;20028;-69
2023/03/18 08:11:57;;;;;;;12.23;5.18;;;11.80;99.90;;;;;;5016528;28;20085;-69
2023/03/18 08:14:22;;;;;;;11.55;5.30;;;11.80;99.90;;;;;;5016453;28;20080;-70
2023/03/18 08:16:48;;;;;;;8.85;4.38;;;11.90;99.90;;;;;;5016633;28;20028;-70
2023/03/18 08:19:14;;;;;;;9.07;4.60;;;12.10;99.90;;;;;;5017601;28;20038;-69
2023/03/18 08:21:40;;;;;;;8.88;4.03;;;12.30;99.90;;;;;;5016504;28;20084;-65
2023/03/18 08:24:05;;;;;;;10.13;4.40;;;12.40;99.90;;;;;;5018057;28;20036;-67
2023/03/18 08:26:31;;;;;;;7.47;4.05;;;12.60;99.90;;;;;;5021140;28;20037;-67
2023/03/18 08:28:57;;;;;;;9.82;4.47;;;12.70;99.90;;;;;;5020181;28;20030;-68
2023/03/18 08:31:22;;;;;;;5.78;3.88;;;12.70;99.90;;;;;;5021103;28;20022;-68
2023/03/18 08:33:48;;;;;;;13.43;5.13;;;12.80;99.90;;;;;;5020265;28;20014;-68
2023/03/18 08:36:14;;;;;;;8.50;3.97;;;12.80;99.90;;;;;;5020257;28;20032;-68
2023/03/18 08:38:39;;;;;;;6.93;4.13;;;13.00;99.90;;;;;;5020463;28;20030;-68
2023/03/18 08:41:05;;;;;;;6.57;3.67;;;13.00;99.90;;;;;;5020918;28;20022;-67
2023/03/18 08:43:31;;;;;;;6.50;3.55;;;12.90;99.90;;;;;;5020874;28;20022;-67
2023/03/18 08:45:57;;;;;;;8.68;3.53;;;13.00;99.90;;;;;;5019905;28;20033;-67
2023/03/18 08:48:24;;;;;;;7.53;3.92;;;13.10;99.90;;;;;;5020199;28;20058;-67
2023/03/18 08:50:50;;;;;;;7.30;3.25;;;13.30;99.90;;;;;;5020010;28;20045;-67
2023/03/18 08:53:16;;;;;;;7.25;4.00;;;13.30;99.90;;;;;;5020110;28;20056;-68
2023/03/18 08:55:41;;;;;;;6.22;3.65;;;13.50;99.90;;;;;;5019961;28;20057;-68
2023/03/18 08:58:07;;;;;;;5.57;3.38;;;13.60;99.90;;;;;;5019743;28;20030;-67
2023/03/18 09:00:35;;;;;;;5.22;3.20;;;13.60;99.90;;;;;;5020021;28;20032;-68
2023/03/18 09:03:01;;;;;;;5.78;3.35;;;13.70;99.90;;;;;;5019526;28;20064;-68
2023/03/18 09:05:27;;;;;;;5.07;3.10;;;13.80;99.90;;;;;;5019918;28;20131;-68
2023/03/18 09:07:52;;;;;;;7.43;3.28;;;13.80;99.90;;;;;;5019555;28;20117;-67
2023/03/18 09:10:19;;;;;;;6.95;3.58;;;13.90;99.90;;;;;;5020325;28;20026;-68
2023/03/18 09:12:45;;;;;;;6.68;2.85;;;14.00;99.90;;;;;;5019620;28;20037;-67
2023/03/18 09:15:13;;;;;;;6.00;3.13;;;14.30;99.90;;;;;;5019354;28;20022;-67
2023/03/18 09:17:40;;;;;;;7.82;3.55;;;14.40;99.90;;;;;;5019535;28;20033;-67
2023/03/18 09:20:11;;;;;;;9.48;3.13;;;14.50;99.90;;;;;;5020419;28;20029;-67
2023/03/18 09:22:38;;;;;;;5.30;3.20;;;14.50;99.90;;;;;;5019295;28;20033;-67
2023/03/18 09:25:04;;;;;;;8.10;4.45;;;14.50;99.90;;;;;;5020202;28;20109;-67
2023/03/18 09:27:29;;;;;;;10.18;4.63;;;14.50;99.90;;;;;;5019152;28;20125;-68
2023/03/18 09:29:55;;;;;;;11.50;5.05;;;14.60;99.90;;;;;;5020392;28;20014;-67
2023/03/18 09:32:21;;;;;;;12.25;6.30;;;14.70;99.90;;;;;;5019866;28;20021;-68
2023/03/18 09:34:47;;;;;;;12.73;6.47;;;14.70;99.90;;;;;;5018734;28;20144;-68
2023/03/18 09:37:13;;;;;;;12.50;5.57;;;14.70;99.90;;;;;;5018647;28;20050;-67
2023/03/18 09:39:42;;;;;;;10.90;5.50;;;14.80;99.90;;;;;;5018887;28;20149;-67
2023/03/18 09:42:20;;;;;;;10.75;5.32;;;14.90;99.90;;;;;;5019050;28;20059;-65
2023/03/18 09:44:53;;;;;;;12.55;5.55;;;15.10;99.90;;;;;;5019871;28;20053;-64
2023/03/18 09:47:41;;;;;;;9.20;4.32;;;15.30;99.90;;;;;;5018864;28;20033;-65
2023/03/18 09:50:23;;;;;;;7.53;3.90;;;15.40;99.90;;;;;;5018983;28;20273;-65
2023/03/18 09:53:03;;;;;;;6.00;3.95;;;15.60;99.90;;;;;;5019879;28;20026;-65
2023/03/18 09:55:39;;;;;;;7.47;3.00;;;15.60;99.90;;;;;;5019068;28;20022;-65
2023/03/18 09:58:21;;;;;;;8.13;2.28;;;15.60;99.90;;;;;;5019534;28;20033;-65
2023/03/18 10:00:47;;;;;;;5.10;2.42;;;15.50;99.90;;;;;;5018743;28;20026;-65
2023/03/18 10:03:37;;;;;;;4.75;2.35;;;15.60;99.90;;;;;;5018694;28;20088;-65
2023/03/18 10:06:15;;;;;;;9.13;2.60;;;15.90;99.90;;;;;;5019434;28;20071;-66
2023/03/18 10:09:05;;;;;;;4.07;2.00;;;15.90;99.90;;;;;;5019294;28;20109;-65
2023/03/18 10:11:43;;;;;;;5.05;2.40;;;15.90;99.90;;;;;;5018368;28;20022;-65
2023/03/18 10:14:27;;;;;;;4.43;1.92;;;16.10;99.90;;;;;;5019468;28;20022;-66
2023/03/18 10:16:52;;;;;;;2.83;2.10;;;16.30;99.90;;;;;;5019285;28;20032;-66
2023/03/18 10:19:18;;;;;;;4.60;2.35;;;16.30;99.90;;;;;;5018333;28;20021;-65
2023/03/18 10:22:16;;;;;;;6.35;2.78;;;16.50;99.90;;;;;;5019204;28;20031;-66
2023/03/18 10:24:52;;;;;;;5.57;2.47;;;16.70;99.90;;;;;;5019592;28;20041;-66
2023/03/18 10:27:26;;;;;;;5.53;2.42;;;16.50;99.90;;;;;;5018905;28;20034;-66
2023/03/18 10:30:06;;;;;;;5.65;1.67;;;16.40;99.90;;;;;;5018080;28;20026;-66
2023/03/18 10:32:57;;;;;;;3.95;1.70;;;16.80;99.90;;;;;;5018556;28;20076;-65
2023/03/18 10:35:41;;;;;;;3.50;1.67;;;17.90;99.90;;;;;;5019499;28;20029;-66
2023/03/18 10:38:22;;;;;;;5.15;1.85;;;18.00;99.90;;;;;;5018098;28;20040;-66
2023/03/18 10:40:48;;;;;;;4.82;2.10;;;;;;;;;;5018818;28;20034;-66
2023/03/18 10:43:20;;;;;;;5.40;1.88;;;18.50;99.90;;;;;;5018212;28;20053;-66
2023/03/18 10:45:50;;;;;;;3.83;1.50;;;18.80;99.90;;;;;;5018831;28;20037;-66
2023/03/18 10:48:24;;;;;;;2.90;1.52;;;19.00;99.90;;;;;;5016990;28;20037;-66
2023/03/18 10:51:20;;;;;;;2.90;1.70;;;19.10;99.90;;;;;;5017645;28;20018;-66
2023/03/18 10:54:09;;;;;;;8.35;3.33;;;18.70;99.90;;;;;;5018424;28;20026;-66
2023/03/18 10:56:35;;;;;;;9.55;2.55;;;18.10;99.90;;;;;;5018792;28;20014;-66
2023/03/18 10:59:04;;;;;;;5.28;2.10;;;18.00;99.90;;;;;;5017841;28;20029;-66
2023/03/18 11:01:31;;;;;;;4.28;2.00;;;18.00;99.90;;;;;;5017463;28;20112;-66
2023/03/18 11:04:04;;;;;;;5.78;2.58;;;18.30;99.90;;;;;;5017460;28;20026;-66
2023/03/18 11:06:30;;;;;;;13.68;3.67;;;19.10;99.90;;;;;;5018258;28;20033;-66
2023/03/18 11:09:10;;;;;;;4.90;2.17;;;18.80;99.90;;;;;;5018162;28;20030;-66
2023/03/18 11:11:39;;;;;;;7.68;2.78;;;18.50;99.90;;;;;;5017312;28;20026;-66
2023/03/18 11:14:11;;;;;;;5.03;2.55;;;19.10;99.90;;;;;;5017382;28;20029;-66
2023/03/18 11:16:44;;;;;;;4.53;2.78;;;18.70;99.90;;;;;;5018443;28;20031;-66
2023/03/18 11:19:30;;;;;;;5.60;2.83;;;18.80;99.90;;;;;;5018071;28;20033;-66
2023/03/18 11:22:12;;;;;;;6.50;2.72;;;19.00;99.90;;;;;;5017214;28;20084;-65
2023/03/18 11:24:41;;;;;;;;;;;18.30;99.90;;;;;;5017557;28;20034;-66
2023/03/18 11:27:13;;;;;;;5.25;3.05;;;18.20;99.90;;;;;;5016923;28;19906;-66
2023/03/18 11:29:53;;;;;;;6.05;2.75;;;18.20;99.90;;;;;;5017069;28;20022;-66
2023/03/18 11:32:30;;;;;;;5.88;2.58;;;19.20;99.90;;;;;;5017724;28;20036;-66
2023/03/18 11:34:59;;;;;;;4.93;2.58;;;19.90;99.90;;;;;;5017865;28;20030;-66
2023/03/18 11:37:36;;;;;;;9.35;2.60;;;20.10;99.90;;;;;;5016826;28;20030;-66
2023/03/18 11:40:11;;;;;;;2.60;1.70;;;19.70;99.90;;;;;;5017752;28;20093;-66
2023/03/18 11:42:39;;;;;;;6.43;2.15;;;19.50;99.90;;;;;;5017345;28;20026;-66
2023/03/18 11:45:28;;;;;;;6.55;2.42;;;19.60;99.90;;;;;;5017646;28;20032;-66
2023/03/18 11:47:54;;;;;;;6.60;2.15;;;20.00;99.90;;;;;;5016810;28;20041;-66
2023/03/18 11:50:24;;;;;;;5.75;1.98;;;19.80;99.90;;;;;;5016833;28;20025;-66
2023/03/18 11:53:27;;;;;;;6.15;2.10;;;19.10;99.90;;;;;;5016863;28;20029;-65
2023/03/18 11:56:05;;;;;;;5.38;2.08;;;19.10;99.90;;;;;;5011000;28;20092;-66
2023/03/18 11:58:37;;;;;;;3.25;1.98;;;19.20;99.90;;;;;;5017216;28;20117;-66
2023/03/18 12:01:16;;;;;;;4.80;2.10;;;18.80;99.90;;;;;;5017180;28;20026;-66
2023/03/18 12:03:54;;;;;;;5.10;1.80;;;18.90;99.90;;;;;;5017955;28;20028;-66
2023/03/18 12:06:23;;;;;;;4.20;2.00;;;19.10;99.90;;;;;;5016391;28;20076;-66
2023/03/18 12:09:07;;;;;;;4.03;2.03;;;19.20;99.90;;;;;;5017694;28;20065;-66
2023/03/18 12:11:37;;;;;;;6.57;1.77;;;19.20;99.90;;;;;;5017153;28;20025;-66
2023/03/18 12:14:45;;;;;;;4.28;1.90;;;19.00;99.90;;;;;;5041317;22;20045;-67
2023/03/18 12:17:34;;;;;;;4.10;1.92;;;19.10;99.90;;;;;;4985014;28;20030;-67
2023/03/18 12:20:02;;;;;;;8.13;2.50;;;19.40;99.90;;;;;;5016244;28;20025;-67
2023/03/18 12:22:59;;;;;;;7.03;2.10;;;19.30;99.90;;;;;;5033185;28;20042;-67
2023/03/18 12:25:43;;;;;;;8.05;2.10;;;19.30;99.90;;;;;;5017295;28;20026;-67
2023/03/18 12:28:31;;;;;;;6.43;2.13;;;19.40;99.90;;;;;;5033267;28;20117;-67
2023/03/18 12:31:12;;;;;;;5.28;2.20;;;19.30;99.90;;;;;;5017210;28;20029;-67
2023/03/18 12:33:55;;;;;;;6.68;2.40;;;18.50;99.90;;;;;;5017106;28;20022;-67
2023/03/18 12:36:37;;;;;;;7.53;2.20;;;18.10;99.90;;;;;;5016950;28;20030;-67
2023/03/18 12:39:47;;;;;;;3.80;1.48;;;18.10;99.90;;;;;;5032673;28;20022;-67
2023/03/18 12:42:24;;;;;;;7.05;2.17;;;18.60;99.90;;;;;;5033458;28;20034;-67
2023/03/18 12:45:19;;;;;;;3.00;1.67;;;19.00;99.90;;;;;;5017180;28;20028;-67
2023/03/18 12:47:56;;;;;;;10.93;3.85;;;18.90;99.90;;;;;;5017129;28;20048;-67
2023/03/18 12:50:35;;;;;;;7.80;2.80;;;19.20;99.90;;;;;;5016460;28;20046;-67
2023/03/18 12:53:15;;;;;;;5.65;2.40;;;19.70;99.90;;;;;;5016774;28;20025;-67
2023/03/18 12:55:48;;;;;;;6.95;2.22;;;20.00;99.90;;;;;;5032495;28;20050;-67
2023/03/18 12:58:30;;;;;;;2.25;1.50;;;19.80;99.90;;;;;;5016769;28;20030;-67